createdAt,value
2022-12-26T00:01:02.139Z,96255.06
2022-12-26T00:03:30.615Z,96259.25
2022-12-26T00:05:58.629Z,96256.78
2022-12-26T00:08:28.123Z,96235.41
2022-12-26T00:10:56.099Z,96266.69
2022-12-26T00:13:39.195Z,96263.22
2022-12-26T00:16:10.080Z,96253.78
2022-12-26T00:18:38.735Z,96281.78
2022-12-26T00:21:07.043Z,96282.31
2022-12-26T00:23:37.063Z,96266.84
2022-12-26T00:26:05.979Z,96275.38
2022-12-26T00:28:34.107Z,96279.44
2022-12-26T00:31:07.174Z,96275.00
2022-12-26T00:33:36.122Z,96239.66
2022-12-26T00:36:05.009Z,96239.84
2022-12-26T00:38:33.339Z,96264.22
2022-12-26T00:41:02.824Z,96270.13
2022-12-26T00:43:30.802Z,96278.44
2022-12-26T00:45:58.734Z,96280.31
2022-12-26T00:48:26.573Z,96288.31
2022-12-26T00:50:54.654Z,96291.47
2022-12-26T00:53:23.353Z,96267.94
2022-12-26T00:55:51.462Z,96292.22
2022-12-26T00:58:21.941Z,96279.66
2022-12-26T01:00:50.387Z,96287.34
2022-12-26T01:03:18.377Z,96280.72
2022-12-26T01:05:49.080Z,96296.38
2022-12-26T01:08:23.347Z,96306.81
2022-12-26T01:10:52.931Z,96295.53
2022-12-26T01:13:22.495Z,96292.53
2022-12-26T01:15:51.847Z,96294.97
2022-12-26T01:18:20.047Z,96303.19
2022-12-26T01:20:48.881Z,96309.31
2022-12-26T01:23:18.024Z,96309.78
2022-12-26T01:26:15.559Z,96323.00
2022-12-26T01:28:35.491Z,96333.09
2022-12-26T01:31:04.097Z,96312.81
2022-12-26T01:33:32.156Z,96317.41
2022-12-26T01:36:00.370Z,96315.56
2022-12-26T01:38:28.802Z,96314.50
2022-12-26T01:41:10.552Z,96315.06
2022-12-26T01:43:56.093Z,96311.91
2022-12-26T01:46:28.564Z,96292.59
2022-12-26T01:48:59.638Z,96300.03
2022-12-26T01:51:31.217Z,96302.25
2022-12-26T01:54:41.456Z,96316.69
2022-12-26T01:56:53.022Z,96312.53
2022-12-26T01:59:24.616Z,96306.38
2022-12-26T02:01:55.256Z,96305.81
2022-12-26T02:04:44.996Z,96262.28
2022-12-26T02:07:13.285Z,96306.13
2022-12-26T02:09:41.703Z,96272.47
2022-12-26T02:12:35.369Z,96276.53
2022-12-26T02:15:08.234Z,96281.16
2022-12-26T02:17:36.140Z,96220.94
2022-12-26T02:20:19.113Z,96279.00
2022-12-26T02:23:20.520Z,96283.50
2022-12-26T02:26:33.189Z,96281.09
2022-12-26T02:29:41.939Z,96278.69
2022-12-26T02:32:18.754Z,96279.94
2022-12-26T02:34:56.884Z,96279.78
2022-12-26T02:37:37.513Z,96280.97
2022-12-26T02:40:20.474Z,96281.72
2022-12-26T02:42:57.009Z,96279.59
2022-12-26T02:45:52.704Z,96278.06
2022-12-26T02:48:32.491Z,96281.22
2022-12-26T02:51:29.474Z,96268.78
2022-12-26T02:54:24.588Z,96289.31
2022-12-26T02:57:14.050Z,96283.34
2022-12-26T03:00:08.080Z,96281.53
2022-12-26T03:02:59.253Z,96274.34
2022-12-26T03:05:51.818Z,96237.94
2022-12-26T03:08:44.341Z,96273.78
2022-12-26T03:11:29.410Z,96274.28
2022-12-26T03:14:04.164Z,96255.06
2022-12-26T03:16:49.628Z,96281.56
2022-12-26T03:19:18.030Z,96286.13
2022-12-26T03:21:48.921Z,96284.44
2022-12-26T03:24:18.563Z,96288.28
2022-12-26T03:26:50.210Z,96289.00
2022-12-26T03:29:37.642Z,96290.78
2022-12-26T03:32:08.092Z,96288.28
2022-12-26T03:34:41.885Z,96291.69
2022-12-26T03:37:48.478Z,96282.25
2022-12-26T03:40:44.407Z,96306.03
2022-12-26T03:43:39.399Z,96299.94
2022-12-26T03:46:35.840Z,96311.28
2022-12-26T03:49:27.062Z,96301.94
2022-12-26T03:52:18.067Z,96325.56
2022-12-26T03:55:12.256Z,96314.56
2022-12-26T03:58:02.188Z,96315.25
2022-12-26T04:00:49.597Z,96310.84
2022-12-26T04:03:38.632Z,96304.94
2022-12-26T04:06:27.788Z,96253.88
2022-12-26T04:09:18.298Z,96309.13
2022-12-26T04:12:05.277Z,96267.44
2022-12-26T04:14:59.128Z,96322.00
2022-12-26T04:17:57.552Z,96293.78
2022-12-26T04:20:31.179Z,96304.53
2022-12-26T04:23:23.736Z,96303.25
2022-12-26T04:26:17.862Z,96293.44
2022-12-26T04:29:04.750Z,96256.56
2022-12-26T04:31:55.023Z,96296.47
2022-12-26T04:34:48.502Z,96295.63
2022-12-26T04:37:40.913Z,96309.41
2022-12-26T04:40:31.033Z,96306.31
2022-12-26T04:43:48.491Z,96238.63
2022-12-26T04:46:07.651Z,96303.88
2022-12-26T04:49:01.150Z,96302.72
2022-12-26T04:51:29.010Z,96313.19
2022-12-26T04:53:56.904Z,96317.22
2022-12-26T04:56:24.876Z,96278.50
2022-12-26T04:58:52.719Z,96316.31
2022-12-26T05:01:39.650Z,96323.34
2022-12-26T05:04:36.253Z,96315.94
2022-12-26T05:07:24.155Z,96316.53
2022-12-26T05:09:54.593Z,96314.38
2022-12-26T05:12:22.664Z,96274.78
2022-12-26T05:14:50.509Z,96328.03
2022-12-26T05:17:37.311Z,96329.91
2022-12-26T05:20:23.408Z,96336.81
2022-12-26T05:23:16.033Z,96319.38
2022-12-26T05:26:03.470Z,96323.56
2022-12-26T05:28:43.387Z,96278.59
2022-12-26T05:31:12.640Z,96353.00
2022-12-26T05:33:59.788Z,96347.88
2022-12-26T05:36:32.543Z,96364.19
2022-12-26T05:39:00.706Z,96357.19
2022-12-26T05:41:29.066Z,96295.59
2022-12-26T05:43:56.942Z,96329.50
2022-12-26T05:46:24.902Z,96353.88
2022-12-26T05:48:54.187Z,96322.19
2022-12-26T05:51:22.261Z,96313.09
2022-12-26T05:53:50.569Z,96362.41
2022-12-26T05:56:19.276Z,96352.19
2022-12-26T05:58:47.453Z,96358.69
2022-12-26T06:01:17.795Z,96341.03
2022-12-26T06:03:48.837Z,96354.13
2022-12-26T06:06:19.299Z,96302.59
2022-12-26T06:08:49.324Z,96357.41
2022-12-26T06:11:18.526Z,96364.78
2022-12-26T06:13:46.746Z,96363.03
2022-12-26T06:16:17.663Z,96357.94
2022-12-26T06:18:45.901Z,96328.13
2022-12-26T06:21:15.602Z,96342.72
2022-12-26T06:23:44.899Z,96348.97
2022-12-26T06:26:13.648Z,96290.72
2022-12-26T06:28:42.829Z,96345.56
2022-12-26T06:31:14.516Z,96346.69
2022-12-26T06:33:43.077Z,96362.91
2022-12-26T06:36:12.902Z,96375.28
2022-12-26T06:38:41.177Z,96364.19
2022-12-26T06:41:12.448Z,96362.69
2022-12-26T06:43:40.431Z,96359.59
2022-12-26T06:46:09.465Z,96325.66
2022-12-26T06:48:39.606Z,96371.13
2022-12-26T06:51:10.571Z,96374.88
2022-12-26T06:53:38.734Z,96369.78
2022-12-26T06:56:07.861Z,96362.84
2022-12-26T06:58:37.483Z,96346.81
2022-12-26T07:01:06.520Z,96378.84
2022-12-26T07:03:34.561Z,96377.00
2022-12-26T07:06:05.250Z,96381.25
2022-12-26T07:08:33.652Z,96385.53
2022-12-26T07:11:02.022Z,96382.31
2022-12-26T07:13:29.984Z,96382.56
2022-12-26T07:16:01.479Z,96363.28
2022-12-26T07:18:29.384Z,96384.22
2022-12-26T07:20:57.267Z,96390.81
2022-12-26T07:23:25.220Z,96389.13
2022-12-26T07:25:53.149Z,96384.19
2022-12-26T07:28:21.067Z,96387.22
2022-12-26T07:30:49.487Z,96375.75
2022-12-26T07:33:18.984Z,96395.19
2022-12-26T07:35:46.838Z,96391.66
2022-12-26T07:38:14.911Z,96334.34
2022-12-26T07:40:42.853Z,96392.47
2022-12-26T07:43:10.869Z,96382.63
2022-12-26T07:45:43.484Z,96387.81
2022-12-26T07:48:13.646Z,96383.91
2022-12-26T07:50:47.080Z,96365.00
2022-12-26T07:53:15.407Z,96389.03
2022-12-26T07:55:43.345Z,96382.47
2022-12-26T07:58:11.457Z,96382.97
2022-12-26T08:00:39.332Z,96380.47
2022-12-26T08:03:08.400Z,96378.81
2022-12-26T08:05:39.337Z,96377.41
2022-12-26T08:08:08.577Z,96352.53
2022-12-26T08:10:37.974Z,96372.41
2022-12-26T08:13:05.923Z,96376.31
2022-12-26T08:15:33.936Z,96371.97
2022-12-26T08:18:01.845Z,96376.34
2022-12-26T08:20:29.776Z,96328.72
2022-12-26T08:25:31.806Z,96378.50
2022-12-26T08:28:00.299Z,96377.19
2022-12-26T08:30:28.204Z,96378.34
2022-12-26T08:32:56.101Z,96384.19
2022-12-26T08:35:24.464Z,96382.56
2022-12-26T08:37:52.417Z,96368.69
2022-12-26T08:40:41.451Z,96351.44
2022-12-26T08:43:31.022Z,96372.47
2022-12-26T08:46:02.078Z,96366.59
2022-12-26T08:48:30.499Z,96359.50
2022-12-26T08:51:01.766Z,96366.16
2022-12-26T08:53:32.907Z,96366.06
2022-12-26T08:56:00.966Z,96367.31
2022-12-26T08:58:30.408Z,96368.53
2022-12-26T09:01:07.548Z,96369.84
2022-12-26T09:03:35.835Z,96360.00
2022-12-26T09:06:06.443Z,96335.38
2022-12-26T09:08:35.716Z,96267.03
2022-12-26T09:11:05.165Z,96350.88
2022-12-26T09:13:35.701Z,96357.66
2022-12-26T09:16:09.418Z,96351.53
2022-12-26T09:18:37.624Z,96349.97
2022-12-26T09:21:08.422Z,96335.81
2022-12-26T09:23:37.168Z,96351.28
2022-12-26T09:26:07.478Z,96343.97
2022-12-26T09:28:37.557Z,96201.00
2022-12-26T09:31:07.297Z,96340.16
2022-12-26T09:33:37.612Z,96335.78
2022-12-26T09:36:14.056Z,96345.09
2022-12-26T09:38:42.858Z,96339.38
2022-12-26T09:41:29.659Z,96331.47
2022-12-26T09:44:07.187Z,96320.97
2022-12-26T09:46:42.822Z,96314.06
2022-12-26T09:49:14.341Z,96334.91
2022-12-26T09:51:45.795Z,96315.66
2022-12-26T09:54:19.128Z,96326.19
2022-12-26T09:57:05.296Z,96304.38
2022-12-26T09:59:47.271Z,96258.13
2022-12-26T10:02:19.776Z,96298.16
2022-12-26T10:04:47.984Z,96310.03
2022-12-26T10:07:22.498Z,96308.59
2022-12-26T10:10:03.951Z,96298.72
2022-12-26T10:12:40.073Z,96304.41
2022-12-26T10:15:32.636Z,96256.94
2022-12-26T10:18:12.665Z,96298.78
2022-12-26T10:20:53.084Z,96280.47
2022-12-26T10:23:32.327Z,96282.78
2022-12-26T10:26:07.019Z,96290.88
2022-12-26T10:28:40.323Z,96272.50
2022-12-26T10:31:16.861Z,96255.38
2022-12-26T10:33:48.793Z,96265.09
2022-12-26T10:36:23.098Z,96252.06
2022-12-26T10:38:54.121Z,96252.84
2022-12-26T10:41:28.956Z,96261.75
2022-12-26T10:43:56.922Z,96260.31
2022-12-26T10:46:40.611Z,96259.03
2022-12-26T10:49:12.230Z,96255.41
2022-12-26T10:51:40.456Z,96222.13
2022-12-26T10:54:16.772Z,96236.94
2022-12-26T10:56:46.378Z,96258.91
2022-12-26T10:59:18.325Z,96219.59
2022-12-26T11:01:50.994Z,96242.41
2022-12-26T11:04:44.471Z,96229.63
2022-12-26T11:07:12.298Z,96240.69
2022-12-26T11:09:44.018Z,96240.00
2022-12-26T11:12:22.155Z,96235.88
2022-12-26T11:14:50.974Z,96216.94
2022-12-26T11:17:29.290Z,96221.00
2022-12-26T11:20:27.750Z,96219.75
2022-12-26T11:22:56.017Z,96217.16
2022-12-26T11:25:27.601Z,96202.41
2022-12-26T11:27:57.480Z,96216.97
2022-12-26T11:30:29.164Z,96196.31
2022-12-26T11:33:24.065Z,96174.88
2022-12-26T11:35:55.908Z,96211.84
2022-12-26T11:38:44.204Z,96209.41
2022-12-26T11:41:36.799Z,96201.38
2022-12-26T11:44:22.623Z,96191.50
2022-12-26T11:46:55.659Z,96191.97
2022-12-26T11:49:31.138Z,96185.09
2022-12-26T11:52:00.683Z,96203.53
2022-12-26T11:54:32.281Z,96064.50
2022-12-26T11:57:03.719Z,96195.44
2022-12-26T11:59:31.649Z,96175.31
2022-12-26T12:02:22.221Z,96177.34
2022-12-26T12:04:55.993Z,96157.81
2022-12-26T12:07:48.694Z,96176.06
2022-12-26T12:10:47.829Z,96164.16
2022-12-26T12:13:46.123Z,96168.50
2022-12-26T12:16:32.778Z,96160.69
2022-12-26T12:19:15.676Z,96121.41
2022-12-26T12:21:46.654Z,96147.88
2022-12-26T12:24:38.534Z,96165.53
2022-12-26T12:27:13.245Z,96162.56
2022-12-26T12:30:02.732Z,96167.06
2022-12-26T12:32:41.079Z,96161.34
2022-12-26T12:35:25.695Z,96155.16
2022-12-26T12:38:17.450Z,96156.53
2022-12-26T12:41:00.194Z,96156.34
2022-12-26T12:43:33.511Z,96155.00
2022-12-26T12:46:10.345Z,96158.34
2022-12-26T12:48:51.109Z,96161.19
2022-12-26T12:51:29.059Z,96156.41
2022-12-26T12:54:16.580Z,96146.00
2022-12-26T12:56:52.500Z,96155.03
2022-12-26T12:59:33.517Z,96166.50
2022-12-26T13:02:10.278Z,96161.22
2022-12-26T13:04:44.342Z,96169.03
2022-12-26T13:07:17.799Z,96151.72
2022-12-26T13:09:51.210Z,96156.19
2022-12-26T13:12:23.267Z,96148.25
2022-12-26T13:14:56.718Z,96149.28
2022-12-26T13:17:32.646Z,96150.97
2022-12-26T13:20:04.545Z,96152.75
2022-12-26T13:22:52.930Z,96158.72
2022-12-26T13:25:25.830Z,96145.06
2022-12-26T13:28:09.435Z,96149.78
2022-12-26T13:30:38.652Z,96115.69
2022-12-26T13:33:07.177Z,96145.53
2022-12-26T13:35:56.844Z,96086.03
2022-12-26T13:38:26.379Z,96146.38
2022-12-26T13:41:21.912Z,96159.03
2022-12-26T13:44:03.005Z,96159.44
2022-12-26T13:46:38.617Z,96150.19
2022-12-26T13:49:07.775Z,96142.91
2022-12-26T13:52:00.590Z,96152.19
2022-12-26T13:54:30.164Z,96147.63
2022-12-26T13:57:41.187Z,96149.22
2022-12-26T14:00:18.125Z,96147.72
2022-12-26T14:03:24.013Z,96157.59
2022-12-26T14:06:19.788Z,96154.66
2022-12-26T14:09:07.104Z,96146.06
2022-12-26T14:11:48.163Z,96147.22
2022-12-26T14:14:27.723Z,96148.34
2022-12-26T14:17:03.268Z,96152.16
2022-12-26T14:19:43.974Z,96148.53
2022-12-26T14:22:18.438Z,96147.56
2022-12-26T14:25:05.761Z,96144.38
2022-12-26T14:27:43.482Z,96153.94
2022-12-26T14:30:25.490Z,96157.38
2022-12-26T14:33:10.307Z,96156.38
2022-12-26T14:35:46.049Z,96151.41
2022-12-26T14:38:26.106Z,96162.81
2022-12-26T14:41:06.933Z,96162.94
2022-12-26T14:43:36.736Z,96163.28
2022-12-26T14:46:29.031Z,96144.16
2022-12-26T14:49:00.011Z,96145.38
2022-12-26T14:51:36.925Z,96165.84
2022-12-26T14:54:50.801Z,96170.09
2022-12-26T14:57:46.198Z,96170.66
2022-12-26T15:00:32.602Z,96173.63
2022-12-26T15:03:45.976Z,96133.53
2022-12-26T15:07:01.281Z,96163.38
2022-12-26T15:10:13.749Z,96158.72
2022-12-26T15:13:28.765Z,96132.03
2022-12-26T15:16:11.513Z,96152.31
2022-12-26T15:19:07.864Z,96136.66
2022-12-26T15:22:13.778Z,96129.75
2022-12-26T15:25:19.290Z,96134.38
2022-12-26T15:28:18.170Z,96132.88
2022-12-26T15:31:08.573Z,96134.09
2022-12-26T15:33:41.814Z,96135.41
2022-12-26T15:36:24.263Z,96150.34
2022-12-26T15:38:59.576Z,96121.78
2022-12-26T15:41:36.995Z,96148.91
2022-12-26T15:44:17.778Z,96049.00
2022-12-26T15:46:54.525Z,96141.63
2022-12-26T15:49:33.730Z,96145.81
2022-12-26T15:52:11.872Z,96149.38
2022-12-26T15:55:07.842Z,96143.13
2022-12-26T15:57:46.996Z,96152.09
2022-12-26T16:00:18.848Z,96145.59
2022-12-26T16:02:51.124Z,96116.31
2022-12-26T16:05:44.182Z,96122.16
2022-12-26T16:08:37.352Z,96163.50
2022-12-26T16:11:31.745Z,96164.19
2022-12-26T16:14:01.640Z,96168.03
2022-12-26T16:16:35.235Z,96169.53
2022-12-26T16:19:17.265Z,96149.63
2022-12-26T16:22:06.281Z,96166.50
2022-12-26T16:24:38.306Z,96165.06
2022-12-26T16:27:09.142Z,96172.28
2022-12-26T16:29:46.770Z,96154.56
2022-12-26T16:32:19.134Z,96165.13
2022-12-26T16:34:48.172Z,96173.31
2022-12-26T16:37:20.217Z,96167.41
2022-12-26T16:40:09.459Z,96161.47
2022-12-26T16:42:37.351Z,96016.50
2022-12-26T16:45:07.527Z,96150.22
2022-12-26T16:47:36.454Z,96172.94
2022-12-26T16:50:05.746Z,96176.19
2022-12-26T16:52:43.956Z,96168.22
2022-12-26T16:55:37.725Z,96184.97
2022-12-26T16:58:15.270Z,96170.91
2022-12-26T17:01:01.156Z,96188.50
2022-12-26T17:03:37.629Z,96185.22
2022-12-26T17:06:12.777Z,96201.63
2022-12-26T17:08:46.167Z,96187.91
2022-12-26T17:11:15.807Z,96194.56
2022-12-26T17:13:52.775Z,96200.22
2022-12-26T17:16:24.736Z,96178.94
2022-12-26T17:18:54.056Z,96204.78
2022-12-26T17:21:29.939Z,96181.75
2022-12-26T17:24:06.929Z,96213.88
2022-12-26T17:26:38.141Z,96202.28
2022-12-26T17:29:06.285Z,96206.19
2022-12-26T17:31:37.058Z,96212.19
2022-12-26T17:34:09.395Z,96136.50
2022-12-26T17:39:27.829Z,96202.38
2022-12-26T17:41:59.186Z,96204.56
2022-12-26T17:44:38.837Z,96205.13
2022-12-26T17:47:20.670Z,96183.25
2022-12-26T17:49:49.314Z,96185.03
2022-12-26T17:52:20.698Z,96194.78
2022-12-26T17:54:50.283Z,96188.88
2022-12-26T17:57:22.929Z,96188.19
2022-12-26T17:59:52.110Z,96118.06
2022-12-26T18:02:21.608Z,96181.59
2022-12-26T18:04:50.249Z,96182.28
2022-12-26T18:07:24.314Z,96170.53
2022-12-26T18:09:56.759Z,96164.00
2022-12-26T18:12:25.980Z,96153.44
2022-12-26T18:15:01.090Z,96167.69
2022-12-26T18:17:32.859Z,96162.63
2022-12-26T18:20:00.759Z,96171.84
2022-12-26T18:22:28.906Z,96160.94
2022-12-26T18:24:56.998Z,96169.25
2022-12-26T18:27:30.273Z,96165.53
2022-12-26T18:29:58.407Z,96165.53
2022-12-26T18:32:27.724Z,96156.97
2022-12-26T18:34:55.627Z,96148.00
2022-12-26T18:37:35.815Z,96161.25
2022-12-26T18:40:03.786Z,96161.34
2022-12-26T18:42:33.077Z,96169.31
2022-12-26T18:45:00.984Z,96163.41
2022-12-26T18:47:30.028Z,96153.78
2022-12-26T18:49:57.904Z,96147.38
2022-12-26T18:52:25.807Z,96157.03
2022-12-26T18:54:53.701Z,96158.91
2022-12-26T18:57:21.811Z,96161.00
2022-12-26T18:59:51.097Z,96150.41
2022-12-26T19:02:20.354Z,96149.13
2022-12-26T19:04:49.342Z,96147.88
2022-12-26T19:07:18.235Z,96149.44
2022-12-26T19:09:46.442Z,96163.88
2022-12-26T19:12:14.495Z,96102.13
2022-12-26T19:14:42.991Z,96159.44
2022-12-26T19:17:12.364Z,96156.00
2022-12-26T19:19:40.494Z,96165.84
2022-12-26T19:22:08.910Z,96154.66
2022-12-26T19:24:36.985Z,96161.84
2022-12-26T19:27:05.354Z,96164.50
2022-12-26T19:29:33.188Z,96153.81
2022-12-26T19:32:01.160Z,96153.81
2022-12-26T19:34:30.656Z,96149.53
2022-12-26T19:36:58.517Z,96140.47
2022-12-26T19:39:26.371Z,96142.59
2022-12-26T19:41:54.319Z,96149.06
2022-12-26T19:44:22.401Z,96149.44
2022-12-26T19:46:50.344Z,96147.34
2022-12-26T19:49:39.561Z,96147.03
2022-12-26T19:52:07.707Z,96151.88
2022-12-26T19:54:35.584Z,96143.84
2022-12-26T19:57:03.486Z,96148.09
2022-12-26T19:59:31.393Z,96145.41
2022-12-26T20:01:59.478Z,96153.19
2022-12-26T20:04:27.477Z,96153.75
2022-12-26T20:06:59.816Z,96163.91
2022-12-26T20:09:28.407Z,96157.72
2022-12-26T20:11:57.174Z,96121.47
2022-12-26T20:14:27.601Z,96163.56
2022-12-26T20:17:06.117Z,96166.25
2022-12-26T20:19:36.450Z,96168.38
2022-12-26T20:22:06.718Z,96149.16
2022-12-26T20:24:35.103Z,96158.75
2022-12-26T20:27:03.537Z,96133.72
2022-12-26T20:29:31.648Z,96159.34
2022-12-26T20:31:59.867Z,96160.41
2022-12-26T20:34:27.903Z,96155.28
2022-12-26T20:36:55.795Z,96155.56
2022-12-26T20:39:26.028Z,96135.56
2022-12-26T20:41:54.390Z,96159.59
2022-12-26T20:44:22.386Z,96147.06
2022-12-26T20:46:50.259Z,96116.34
2022-12-26T20:49:18.583Z,96151.00
2022-12-26T20:51:46.892Z,96148.81
2022-12-26T20:54:16.688Z,96146.44
2022-12-26T20:56:47.238Z,96145.91
2022-12-26T20:59:15.164Z,96148.19
2022-12-26T21:01:43.464Z,96144.47
2022-12-26T21:04:18.621Z,96150.88
2022-12-26T21:06:47.576Z,96133.00
2022-12-26T21:09:15.823Z,96148.47
2022-12-26T21:11:45.438Z,96138.59
2022-12-26T21:14:17.031Z,96137.53
2022-12-26T21:16:46.984Z,96141.78
2022-12-26T21:19:16.160Z,96147.94
2022-12-26T21:21:45.736Z,96153.53
2022-12-26T21:24:15.989Z,96154.88
2022-12-26T21:26:44.168Z,96144.47
2022-12-26T21:29:15.173Z,96152.22
2022-12-26T21:31:43.204Z,96155.69
2022-12-26T21:34:15.256Z,96147.41
2022-12-26T21:37:04.250Z,96146.88
2022-12-26T21:39:33.147Z,96146.34
2022-12-26T21:42:02.163Z,96155.94
2022-12-26T21:44:31.441Z,96144.47
2022-12-26T21:46:59.357Z,96146.63
2022-12-26T21:49:27.393Z,96145.53
2022-12-26T21:51:55.315Z,96143.94
2022-12-26T21:54:46.676Z,96147.69
2022-12-26T21:57:17.100Z,96140.19
2022-12-26T21:59:59.357Z,96150.59
2022-12-26T22:02:48.365Z,96141.53
2022-12-26T22:05:17.257Z,96139.94
2022-12-26T22:07:45.537Z,96121.53
2022-12-26T22:10:34.771Z,96146.59
2022-12-26T22:13:02.827Z,96038.56
2022-12-26T22:16:04.313Z,96148.19
2022-12-26T22:18:33.738Z,96143.09
2022-12-26T22:21:06.916Z,96151.13
2022-12-26T22:23:35.220Z,96146.56
2022-12-26T22:26:03.193Z,96147.06
2022-12-26T22:28:31.525Z,96148.41
2022-12-26T22:31:01.768Z,96138.53
2022-12-26T22:33:30.609Z,96142.78
2022-12-26T22:36:05.626Z,96149.22
2022-12-26T22:38:33.558Z,96144.94
2022-12-26T22:41:01.947Z,96146.03
2022-12-26T22:43:30.657Z,96145.50
2022-12-26T22:46:00.271Z,96142.84
2022-12-26T22:48:28.412Z,96137.25
2022-12-26T22:50:56.951Z,96101.47
2022-12-26T22:53:25.926Z,96129.78
2022-12-26T22:55:58.579Z,96142.78
2022-12-26T22:58:26.723Z,96114.22
2022-12-26T23:00:54.578Z,96143.56
2022-12-26T23:03:24.242Z,96137.47
2022-12-26T23:05:53.174Z,96134.78
2022-12-26T23:08:23.300Z,96143.28
2022-12-26T23:10:53.492Z,96139.31
2022-12-26T23:13:21.839Z,96123.47
2022-12-26T23:15:56.383Z,96139.53
2022-12-26T23:18:52.725Z,96142.75
2022-12-26T23:21:43.161Z,96092.59
2022-12-26T23:24:15.796Z,96138.47
2022-12-26T23:26:46.011Z,96075.00
2022-12-26T23:29:32.632Z,96125.97
2022-12-26T23:32:00.926Z,96096.59
2022-12-26T23:34:30.246Z,96072.06
2022-12-26T23:36:58.193Z,96112.84
2022-12-26T23:39:26.276Z,96108.03
2022-12-26T23:41:54.473Z,96108.06
2022-12-26T23:44:22.373Z,96102.16
2022-12-26T23:46:50.357Z,96103.66
2022-12-26T23:49:18.693Z,96112.88
2022-12-26T23:51:47.980Z,96103.75
2022-12-26T23:54:15.887Z,96091.72
2022-12-26T23:56:43.737Z,96101.25
2022-12-26T23:59:11.573Z,96105.50
